Terminal Aerodrome Forecast
Issued by NWS

Current Version | Previous Version | Graphics & Text | Print | Product List | Glossary On
Versions: 1 2 3 4 5 6 7 8 9 10 11 12 13 14 15 16 17 18 19 20 21 22 23
296
FTUS41 KILN 090532
TAFLUK
TAF
KLUK 090532Z 0906/1006 28012G18KT 2SM -SN OVC028
      TEMPO 0906/0910 3/4SM -SN OVC018
     FM091400 28012G18KT P6SM -SHSN OVC028
     FM100200 27012G20KT 5SM -SHSN OVC028=

USA.gov is the U.S. government's official web portal to all federal, state and local government web resources and services.